Dobrodošli na spletni strani vremenske postaje Senovo. Vse informacije so informativnega značaja, saj vremenska postaja ni del državne mreže meteoroloških postaj. AKTUALNIH OBVESTIL NI.


Posebna pozornost v zvezi z vremenskimi dogajanji ni potrebna.    Posebna pozornost v zvezi z vremenskimi dogajanji ni potrebna.

Pogled proti Armezu več informacij Pogled proti Armezu


Bohor več informacij Bohor


Radar strel več informacij blitzortung!


Radar padavin več informacij rain snow radar


Obiščite še:

Template documentation
and downloads

And another site



Weather Underground, zgodovina - Tekstovno

Dnevni povzetek za November 22, 2017 Enote:  Metrično    Angleško   Obe
« Predhodni Dan
Naslednji Dan »
Dnevni Tedenski Mesečni Letni Po meri
  Višja: Nižja: Povprečje:
Temperatura: -17.8 °C -14.8 °C -11.7 °C
Točka rosišča: -17.8 °C -16.8 °C -15.3 °C
Vlažnost: Humidity % 49 % 65 %
Hitrost vetra: 0 km/h 0 km/h 8.4 km/h
Sunki vetra: 0 km/h - -
Veter:- - WSW
Zračni tlak: 0 hPa 34371.3 hPa -
Padavine: 0 mm    
Historical Graphs
 
 
Tabelarni podarki za November 22, 2017
Čas Temperatura Točka rosišča Zračni tlak Veter Hitrost vetra Sunki vetra Vlažnost Intenziteta padavin (urna)
-17.8 °C -17.8 °C 0 hPa Calm     Humidity % 0 mm
00:02 -13.7 °C -16.3 °C 34405.1 hPa WNW 0.8 km/h 5.1 km/h 72 % 0 mm
00:07 -13.7 °C -16.2 °C 34405.1 hPa WNW 2.9 km/h 6.4 km/h 73 % 0 mm
00:12 -13.7 °C -16.2 °C 34405.1 hPa WNW 3.1 km/h 6.4 km/h 73 % 0 mm
00:22 -13.4 °C -15.9 °C 34405.1 hPa WSW 5 km/h 20.3 km/h 74 % 0 mm
00:37 -12.9 °C -15.2 °C 34405.1 hPa SW 8.2 km/h 12.7 km/h 75 % 0 mm
00:42 -12.7 °C -15.1 °C 34405.1 hPa WSW 9 km/h 14 km/h 75 % 0 mm
00:47 -12.6 °C -15.1 °C 34405.1 hPa WSW 7.2 km/h 14 km/h 74 % 0 mm
00:52 -12.4 °C -14.9 °C 34405.1 hPa WSW 8 km/h 22.5 km/h 74 % 0 mm
00:57 -12.3 °C -14.8 °C 34405.1 hPa SW 11.6 km/h 27.2 km/h 74 % 0 mm
01:02 -12.3 °C -14.8 °C 34405.1 hPa SW 11.6 km/h 27.2 km/h 74 % 0 mm
01:07 -12.2 °C -14.8 °C 34371.3 hPa SSW 8.9 km/h 16.3 km/h 73 % 0 mm
01:12 -12.2 °C -14.8 °C 34371.3 hPa SW 10.3 km/h 23 km/h 72 % 0 mm
01:17 -12.2 °C -14.8 °C 34371.3 hPa SW 11.9 km/h 23 km/h 72 % 0 mm
01:22 -12.1 °C -14.9 °C 34405.1 hPa WSW 9.8 km/h 20.3 km/h 71 % 0 mm
01:37 -12.1 °C -14.9 °C 34405.1 hPa SW 7.6 km/h 16.9 km/h 70 % 0 mm
01:42 -12 °C -14.9 °C 34405.1 hPa SW 9.3 km/h 16.9 km/h 70 % 0 mm
01:47 -12 °C -15.1 °C 34405.1 hPa WSW 10.3 km/h 16.9 km/h 69 % 0 mm
01:52 -11.9 °C -14.9 °C 34428.8 hPa WSW 9 km/h 16.3 km/h 69 % 0 mm
01:57 -11.9 °C -14.9 °C 34428.8 hPa WSW 9.8 km/h 16.3 km/h 69 % 0 mm
02:02 -11.9 °C -15.1 °C 34428.8 hPa WSW 10.6 km/h 14.5 km/h 68 % 0 mm
02:07 -11.9 °C -15.1 °C 34405.1 hPa WSW 9.7 km/h 14.5 km/h 68 % 0 mm
02:12 -11.9 °C -15.1 °C 34405.1 hPa WSW 7.2 km/h 16.9 km/h 68 % 0 mm
02:17 -11.9 °C -15.1 °C 34405.1 hPa WSW 8.2 km/h 16.9 km/h 68 % 0 mm
02:28 -11.9 °C -15.1 °C 34405.1 hPa WSW 9.3 km/h 20.3 km/h 68 % 0 mm
02:32 -11.9 °C -15.1 °C 34405.1 hPa SW 8.2 km/h 20.3 km/h 68 % 0 mm
02:43 -11.9 °C -15.1 °C 34405.1 hPa SW 7.2 km/h 17.9 km/h 68 % 0 mm
02:48 -12 °C -15.2 °C 34405.1 hPa SW 9 km/h 17.9 km/h 68 % 0 mm
02:53 -12 °C -15.2 °C 34405.1 hPa SW 9.3 km/h 15.6 km/h 68 % 0 mm
02:58 -12.1 °C -15.2 °C 34405.1 hPa SSW 8 km/h 11.6 km/h 68 % 0 mm
03:03 -12.1 °C -15.2 °C 34405.1 hPa SSW 7.7 km/h 11.6 km/h 68 % 0 mm
03:08 -12.1 °C -15.2 °C 34405.1 hPa SW 8.9 km/h 15 km/h 68 % 0 mm
03:13 -12.1 °C -15.1 °C 34405.1 hPa WSW 9 km/h 15.6 km/h 69 % 0 mm
03:23 -12 °C -15.1 °C 34405.1 hPa WSW 10.3 km/h 17.9 km/h 69 % 0 mm
03:28 -11.9 °C -14.9 °C 34405.1 hPa WSW 10.3 km/h 17.9 km/h 69 % 0 mm
03:33 -11.9 °C -14.9 °C 34405.1 hPa WSW 9.8 km/h 16.9 km/h 69 % 0 mm
03:38 -11.9 °C -14.9 °C 34371.3 hPa WSW 10.3 km/h 17.9 km/h 69 % 0 mm
03:53 -12 °C -15.1 °C 34405.1 hPa SW 7.7 km/h 16.3 km/h 69 % 0 mm
04:03 -12.1 °C -15.1 °C 34405.1 hPa WSW 8 km/h 11.1 km/h 69 % 0 mm
04:13 -12.2 °C -15.2 °C 34405.1 hPa SW 7.6 km/h 11.1 km/h 69 % 0 mm
04:18 -12.3 °C -15.3 °C 34405.1 hPa SW 6 km/h 11.1 km/h 69 % 0 mm
04:23 -12.3 °C -15.3 °C 34405.1 hPa SW 6.8 km/h 10.3 km/h 69 % 0 mm
04:28 -12.4 °C -15.3 °C 34405.1 hPa SW 6.9 km/h 10.3 km/h 70 % 0 mm
04:33 -12.5 °C -15.4 °C 34405.1 hPa SW 6.9 km/h 10.3 km/h 70 % 0 mm
04:38 -12.6 °C -15.5 °C 34405.1 hPa SSW 6.9 km/h 10.3 km/h 70 % 0 mm
04:53 -13.3 °C -16.2 °C 34405.1 hPa SW 3.9 km/h 9.3 km/h 70 % 0 mm
05:03 -13.6 °C -16.3 °C 34405.1 hPa WNW 0.3 km/h 3.4 km/h 71 % 0 mm
05:08 -13.8 °C -16.4 °C 34405.1 hPa WNW 0.3 km/h 3.4 km/h 72 % 0 mm
05:13 -14 °C -16.6 °C 34405.1 hPa Calm     72 % 0 mm
05:23 -14.2 °C -16.7 °C 34405.1 hPa NW 0.3 km/h 5.1 km/h 73 % 0 mm
05:28 -14.4 °C -16.8 °C 34405.1 hPa NW 0.5 km/h 5.1 km/h 74 % 0 mm
05:33 -14.4 °C -16.8 °C 34371.3 hPa North 0.5 km/h   74 % 0 mm
05:38 -14.5 °C -16.8 °C 34371.3 hPa Calm     75 % 0 mm
05:43 -14.6 °C -16.8 °C 34371.3 hPa WNW 0.8 km/h 11.1 km/h 75 % 0 mm
05:48 -14.4 °C -16.6 °C 34371.3 hPa WNW 6 km/h 22 km/h 76 % 0 mm
05:53 -14.3 °C -16.4 °C 34371.3 hPa WNW 6.3 km/h 22 km/h 76 % 0 mm
05:58 -14.1 °C -16.2 °C 34371.3 hPa WNW 3.1 km/h 8 km/h 77 % 0 mm
06:13 -13.9 °C -15.8 °C 34405.1 hPa NW 2.1 km/h 8.9 km/h 79 % 0 mm
06:18 -13.8 °C -15.6 °C 34371.3 hPa WNW 1.6 km/h 8.9 km/h 80 % 0 mm
06:23 -13.8 °C -15.6 °C 34371.3 hPa WSW 2.6 km/h 8 km/h 80 % 0 mm
06:29 -13.8 °C -15.6 °C 34371.3 hPa SW 1.8 km/h 8 km/h 80 % 0 mm
06:39 -13.9 °C -15.6 °C 34405.1 hPa WSW 5 km/h 8.9 km/h 81 % 0 mm
06:45 -14 °C -15.7 °C 34405.1 hPa SW 6 km/h 10.3 km/h 81 % 0 mm
06:49 -14.1 °C -15.7 °C 34405.1 hPa SW 6 km/h 10.3 km/h 82 % 0 mm
06:59 -14.2 °C -15.8 °C 34405.1 hPa WNW 1.8 km/h 6.9 km/h 82 % 0 mm
07:09 -14.4 °C -16 °C 34428.8 hPa SW 0.3 km/h 6.4 km/h 82 % 0 mm
07:14 -14.6 °C -16.2 °C 34428.8 hPa SW 2.9 km/h 8 km/h 82 % 0 mm
07:19 -14.7 °C -16.2 °C 34428.8 hPa SW 5.6 km/h 8 km/h 82 % 0 mm
07:24 -14.7 °C -16.3 °C 34428.8 hPa SW 5.1 km/h 7.6 km/h 82 % 0 mm
07:29 -14.7 °C -16.2 °C 34428.8 hPa WSW 3.9 km/h 8.9 km/h 83 % 0 mm
07:34 -14.8 °C -16.3 °C 34428.8 hPa West 4.3 km/h 9.3 km/h 83 % 0 mm
07:49 -14.7 °C -16.1 °C 34428.8 hPa West 2.9 km/h 9.3 km/h 84 % 0 mm
07:54 -14.7 °C -16.1 °C 34428.8 hPa WNW 0.5 km/h 5.6 km/h 84 % 0 mm
07:59 -14.6 °C -15.9 °C 34428.8 hPa SW 1 km/h 6.9 km/h 85 % 0 mm
08:14 -13.8 °C -15.2 °C 34405.1 hPa SSW 6.8 km/h 14 km/h 85 % 0 mm
08:19 -13.5 °C -14.7 °C 34428.8 hPa SSW 6.3 km/h 15 km/h 86 % 0 mm
08:24 -13.3 °C -14.5 °C 34428.8 hPa SSW 6.4 km/h 15 km/h 86 % 0 mm
08:34 -12.9 °C -14 °C 34405.1 hPa South 6.8 km/h 12.7 km/h 87 % 0 mm
08:39 -12.7 °C -13.9 °C 34405.1 hPa SSW 6.8 km/h 9.8 km/h 86 % 0 mm
08:44 -12.4 °C -13.6 °C 34405.1 hPa SSW 9 km/h 15 km/h 87 % 0 mm
08:45 -12.4 °C -13.5 °C 34405.1 hPa SSW 9.8 km/h 15 km/h 87 % 0 mm
09:06 -11.6 °C -13 °C 34428.8 hPa SSW 10.1 km/h 16.3 km/h 84 % 0 mm
09:11 -11.4 °C -12.9 °C 34428.8 hPa SW 10.3 km/h 20.9 km/h 83 % 0 mm
09:16 -11.2 °C -12.9 °C 34428.8 hPa WSW 10.6 km/h 20.9 km/h 82 % 0 mm
09:21 -11.1 °C -12.9 °C 34428.8 hPa SW 10.6 km/h 22 km/h 80 % 0 mm
09:26 -11 °C -12.9 °C 34428.8 hPa SW 10.9 km/h 22 km/h 79 % 0 mm
09:31 -10.9 °C -13.1 °C 34428.8 hPa SW 10.1 km/h 19.6 km/h 77 % 0 mm
09:36 -10.8 °C -13.1 °C 34428.8 hPa SW 11.6 km/h 20.9 km/h 76 % 0 mm
09:41 -10.7 °C -13.1 °C 34428.8 hPa WSW 12.4 km/h 20.9 km/h 75 % 0 mm
09:46 -10.6 °C -13.2 °C 34428.8 hPa WSW 10.9 km/h 20.9 km/h 73 % 0 mm
09:56 -10.4 °C -13.3 °C 34428.8 hPa WSW 11.6 km/h 22 km/h 71 % 0 mm
10:06 -10.3 °C -13.6 °C 34428.8 hPa West 13.2 km/h 27.2 km/h 68 % 0 mm
10:11 -10.3 °C -13.6 °C 34428.8 hPa West 10.6 km/h 22 km/h 67 % 0 mm
10:16 -10.3 °C -13.7 °C 34428.8 hPa West 13.7 km/h 35.2 km/h 66 % 0 mm
10:21 -10.3 °C -13.8 °C 34428.8 hPa West 12.9 km/h 35.2 km/h 65 % 0 mm
10:26 -10.3 °C -14 °C 34428.8 hPa West 10.1 km/h 28.5 km/h 64 % 0 mm
10:31 -10.3 °C -14 °C 34428.8 hPa WSW 14.2 km/h 31.9 km/h 64 % 0 mm
10:36 -10.3 °C -14.1 °C 34428.8 hPa West 15.8 km/h 35.2 km/h 63 % 0 mm
10:41 -10.2 °C -14.1 °C 34428.8 hPa West 12.9 km/h 35.2 km/h 63 % 0 mm
10:46 -10.2 °C -14.1 °C 34428.8 hPa WNW 10.9 km/h 20.9 km/h 62 % 0 mm
10:51 -10.1 °C -14.2 °C 34428.8 hPa WNW 11.6 km/h 31.9 km/h 61 % 0 mm
10:56 -10.1 °C -14.2 °C 34428.8 hPa West 8.5 km/h 31.9 km/h 61 % 0 mm
11:01 -9.9 °C -14.3 °C 34428.8 hPa West 8.5 km/h 26.7 km/h 59 % 0 mm
11:06 -9.9 °C -14.3 °C 34428.8 hPa WSW 11.4 km/h 26.7 km/h 59 % 0 mm
11:11 -9.9 °C -14.4 °C 34428.8 hPa WSW 11.4 km/h 26.7 km/h 58 % 0 mm
11:16 -9.9 °C -14.4 °C 34428.8 hPa West 11.6 km/h 26.7 km/h 58 % 0 mm
11:21 -9.9 °C -14.4 °C 34428.8 hPa WNW 11.1 km/h 26.7 km/h 58 % 0 mm
11:26 -9.8 °C -14.4 °C 34428.8 hPa WNW 13.5 km/h 32.3 km/h 57 % 0 mm
11:31 -9.7 °C -14.5 °C 34428.8 hPa WNW 13.2 km/h 32.3 km/h 56 % 0 mm
11:36 -9.6 °C -14.4 °C 34428.8 hPa West 9 km/h 25.4 km/h 56 % 0 mm
11:41 -9.5 °C -14.5 °C 34428.8 hPa West 8.5 km/h 22 km/h 55 % 0 mm
11:46 -9.4 °C -14.6 °C 34428.8 hPa WNW 8.5 km/h 22 km/h 54 % 0 mm
11:51 -9.4 °C -14.6 °C 34428.8 hPa NW 8.5 km/h 29 km/h 54 % 0 mm
11:56 -9.4 °C -14.7 °C 34428.8 hPa NW 9 km/h 29 km/h 53 % 0 mm
12:06 -9.3 °C -14.6 °C 34405.1 hPa WSW 10.3 km/h 27.2 km/h 53 % 0 mm
12:11 -9.3 °C -14.8 °C 34405.1 hPa SW 13.5 km/h 28.5 km/h 52 % 0 mm
12:21 -9.4 °C -14.9 °C 34405.1 hPa WSW 16.3 km/h 37.5 km/h 51 % 0 mm
12:26 -9.4 °C -15.2 °C 34405.1 hPa West 17.4 km/h 37.5 km/h 50 % 0 mm
12:31 -9.3 °C -14.9 °C 34405.1 hPa WSW 11.6 km/h 31.4 km/h 51 % 0 mm
12:36 -9.3 °C -15.1 °C 34428.8 hPa West 10.3 km/h 27.2 km/h 50 % 0 mm
12:41 -9.3 °C -15.1 °C 34428.8 hPa WNW 11.9 km/h 39.4 km/h 50 % 0 mm
12:46 -9.3 °C -15.1 °C 34428.8 hPa West 11.9 km/h 39.4 km/h 50 % 0 mm
12:51 -9.4 °C -15.2 °C 34405.1 hPa WSW 11.1 km/h 20.9 km/h 50 % 0 mm
13:01 -9.4 °C -15.3 °C 34405.1 hPa SW 7.6 km/h 25.4 km/h 49 % 0 mm
13:06 -9.6 °C -15.3 °C 34405.1 hPa WSW 10.9 km/h 26.7 km/h 50 % 0 mm
13:11 -9.6 °C -15.3 °C 34405.1 hPa WSW 12.2 km/h 26.7 km/h 50 % 0 mm
13:16 -9.7 °C -15.2 °C 34405.1 hPa West 11.1 km/h 22.5 km/h 51 % 0 mm
13:21 -9.7 °C -15.3 °C 34405.1 hPa West 10.1 km/h 22.5 km/h 51 % 0 mm
13:26 -9.7 °C -15.3 °C 34405.1 hPa West 9 km/h 15.6 km/h 51 % 0 mm
13:31 -9.8 °C -15.3 °C 34405.1 hPa West 9.7 km/h 19.6 km/h 51 % 0 mm
13:36 -9.8 °C -15.3 °C 34405.1 hPa WSW 9 km/h 19.6 km/h 51 % 0 mm
13:41 -9.8 °C -15.3 °C 34405.1 hPa West 11.9 km/h 28.5 km/h 51 % 0 mm
13:46 -9.8 °C -15.3 °C 34405.1 hPa West 15.3 km/h 38.3 km/h 51 % 0 mm
13:51 -9.8 °C -15.3 °C 34405.1 hPa WNW 11.4 km/h 38.3 km/h 51 % 0 mm
13:56 -9.7 °C -15.3 °C 34405.1 hPa West 8.9 km/h 19.2 km/h 51 % 0 mm
14:06 -9.7 °C -15.3 °C 34405.1 hPa West 11.9 km/h 37.5 km/h 51 % 0 mm
14:11 -9.8 °C -15.3 °C 34405.1 hPa West 13.5 km/h 37.5 km/h 51 % 0 mm
14:16 -9.8 °C -15.3 °C 34405.1 hPa WNW 12.2 km/h 28.5 km/h 51 % 0 mm
14:21 -9.8 °C -15.3 °C 34405.1 hPa West 12.7 km/h 28.5 km/h 51 % 0 mm
14:31 -9.8 °C -15.6 °C 34405.1 hPa West 14.5 km/h 34.8 km/h 50 % 0 mm
14:41 -9.9 °C -15.5 °C 34405.1 hPa West 11.6 km/h 24.8 km/h 51 % 0 mm
14:46 -9.9 °C -15.5 °C 34405.1 hPa West 9.8 km/h 24.8 km/h 51 % 0 mm
14:53 -10.1 °C -15.6 °C 34405.1 hPa West 10.3 km/h 24.8 km/h 51 % 0 mm
14:54 -10.1 °C -15.7 °C 34405.1 hPa West 10.6 km/h 24.8 km/h 51 % 0 mm
15:00 -10.2 °C -15.7 °C 34405.1 hPa West 10.3 km/h 19.6 km/h 51 % 0 mm
15:05 -10.2 °C -15.6 °C 34405.1 hPa West 10.1 km/h 19.6 km/h 52 % 0 mm
15:10 -10.3 °C -15.7 °C 34405.1 hPa West 8.5 km/h 18.7 km/h 52 % 0 mm
15:15 -10.4 °C -15.7 °C 34405.1 hPa WNW 12.2 km/h 27.7 km/h 52 % 0 mm
15:20 -10.4 °C -15.7 °C 34428.8 hPa West 13.7 km/h 31.4 km/h 52 % 0 mm
15:30 -10.5 °C -15.9 °C 34428.8 hPa WNW 11.1 km/h 24.8 km/h 52 % 0 mm
15:40 -10.6 °C -15.8 °C 34428.8 hPa West 11.4 km/h 20.3 km/h 53 % 0 mm
15:45 -10.7 °C -15.9 °C 34428.8 hPa West 11.1 km/h 20.3 km/h 53 % 0 mm
15:50 -10.7 °C -15.8 °C 34428.8 hPa West 11.6 km/h 36 km/h 54 % 0 mm
16:00 -10.7 °C -15.8 °C 34428.8 hPa West 15 km/h 32.3 km/h 54 % 0 mm
16:05 -10.8 °C -15.8 °C 34428.8 hPa WSW 10.6 km/h 32.3 km/h 54 % 0 mm
16:10 -10.8 °C -15.9 °C 34428.8 hPa SW 6.4 km/h 19.2 km/h 54 % 0 mm
16:20 -10.9 °C -15.8 °C 34428.8 hPa SW 6.4 km/h 16.3 km/h 55 % 0 mm
16:30 -11.1 °C -16 °C 34428.8 hPa NW 5 km/h 16.9 km/h 55 % 0 mm
16:35 -11.1 °C -16 °C 34428.8 hPa WSW 5.1 km/h 12.7 km/h 55 % 0 mm
16:40 -11.2 °C -15.9 °C 34428.8 hPa WSW 9.7 km/h 20.3 km/h 56 % 0 mm
16:45 -11.2 °C -15.9 °C 34428.8 hPa WSW 10.3 km/h 20.3 km/h 56 % 0 mm
16:55 -11.3 °C -15.9 °C 34428.8 hPa SW 7.6 km/h 15.6 km/h 57 % 0 mm
17:00 -11.3 °C -15.9 °C 34428.8 hPa SW 9.3 km/h 26.7 km/h 57 % 0 mm
17:05 -11.4 °C -15.9 °C 34428.8 hPa SW 8.5 km/h 26.7 km/h 57 % 0 mm
17:15 -11.4 °C -15.9 °C 34428.8 hPa WSW 6.9 km/h 14.5 km/h 58 % 0 mm
17:20 -11.5 °C -15.9 °C 34428.8 hPa WSW 8 km/h 16.9 km/h 58 % 0 mm
17:25 -11.5 °C -15.8 °C 34428.8 hPa WSW 10.1 km/h 16.9 km/h 59 % 0 mm
17:30 -11.5 °C -15.8 °C 34428.8 hPa WSW 10.9 km/h 22.5 km/h 59 % 0 mm
17:35 -11.6 °C -15.8 °C 34428.8 hPa SW 9.8 km/h 22.5 km/h 59 % 0 mm
17:40 -11.6 °C -15.9 °C 34428.8 hPa SW 7.2 km/h 11.1 km/h 59 % 0 mm
17:45 -11.7 °C -15.8 °C 34428.8 hPa SW 5.6 km/h 11.1 km/h 60 % 0 mm
17:50 -11.7 °C -15.9 °C 34428.8 hPa WSW 6 km/h 15.6 km/h 60 % 0 mm
17:55 -11.7 °C -15.9 °C 34428.8 hPa WSW 6.9 km/h 15.6 km/h 60 % 0 mm
18:00 -11.7 °C -15.7 °C 34428.8 hPa WSW 5.6 km/h 14 km/h 61 % 0 mm
18:05 -11.8 °C -15.8 °C 34428.8 hPa WSW 6.3 km/h 14 km/h 61 % 0 mm
18:10 -11.8 °C -15.8 °C 34428.8 hPa SW 6.9 km/h 14 km/h 61 % 0 mm
18:15 -11.9 °C -15.9 °C 34428.8 hPa SW 6.4 km/h 10.3 km/h 61 % 0 mm
18:20 -12 °C -15.9 °C 34428.8 hPa WSW 6.9 km/h 18.7 km/h 62 % 0 mm
18:25 -12 °C -15.9 °C 34428.8 hPa WSW 5.6 km/h 18.7 km/h 62 % 0 mm
18:35 -12.1 °C -15.8 °C 34428.8 hPa SW 5.5 km/h 11.1 km/h 63 % 0 mm
18:40 -12.1 °C -15.9 °C 34428.8 hPa SSW 2.1 km/h 8.9 km/h 63 % 0 mm
18:45 -12.2 °C -15.9 °C 34428.8 hPa SW 2.6 km/h 10.3 km/h 63 % 0 mm
18:50 -12.3 °C -15.9 °C 34428.8 hPa SW 3.7 km/h 10.3 km/h 64 % 0 mm
18:55 -12.3 °C -15.9 °C 34428.8 hPa SW 4.3 km/h 22 km/h 64 % 0 mm
19:05 -12.2 °C -15.7 °C 34428.8 hPa SW 6.9 km/h 18.7 km/h 65 % 0 mm
19:10 -12.2 °C -15.7 °C 34428.8 hPa WSW 6 km/h 18.7 km/h 65 % 0 mm
19:25 -12.1 °C -15.5 °C 34428.8 hPa WSW 5.6 km/h 17.9 km/h 66 % 0 mm
19:30 -12.2 °C -15.5 °C 34428.8 hPa SW 6.8 km/h 17.9 km/h 66 % 0 mm
19:33 -12.2 °C -15.5 °C 34428.8 hPa SW 7.7 km/h 15.6 km/h 66 % 0 mm
19:38 -12.2 °C -15.5 °C 34428.8 hPa SW 8.2 km/h 15.6 km/h 66 % 0 mm
19:48 -12.2 °C -15.5 °C 34428.8 hPa SSW 7.6 km/h 14 km/h 66 % 0 mm
19:58 -12.2 °C -15.6 °C 34428.8 hPa South 7.6 km/h 12.7 km/h 66 % 0 mm
20:03 -12.2 °C -15.6 °C 34428.8 hPa SW 7.2 km/h 18.7 km/h 66 % 0 mm
20:13 -12.3 °C -15.5 °C 34428.8 hPa SW 5.1 km/h 14.5 km/h 67 % 0 mm
20:28 -12.1 °C -15.4 °C 34428.8 hPa WSW 11.1 km/h 17.4 km/h 67 % 0 mm
20:33 -12.1 °C -15.3 °C 34405.1 hPa WSW 9.3 km/h 19.6 km/h 67 % 0 mm
20:38 -12.1 °C -15.3 °C 34405.1 hPa WSW 6.8 km/h 19.6 km/h 67 % 0 mm
20:43 -12 °C -15.2 °C 34405.1 hPa SW 6.8 km/h 14.5 km/h 67 % 0 mm
20:48 -12 °C -15.4 °C 34428.8 hPa SW 8.2 km/h 20.3 km/h 66 % 0 mm
20:53 -12 °C -15.4 °C 34428.8 hPa SW 8.5 km/h 20.3 km/h 66 % 0 mm
20:58 -12.1 °C -15.4 °C 34428.8 hPa SSW 6.4 km/h 11.1 km/h 66 % 0 mm
21:03 -12.1 °C -15.5 °C 34428.8 hPa SSW 5.1 km/h 9.8 km/h 66 % 0 mm
21:08 -12.2 °C -15.5 °C 34428.8 hPa SSW 5.6 km/h 9.8 km/h 66 % 0 mm
21:18 -12.2 °C -15.5 °C 34428.8 hPa SW 5.6 km/h 19.2 km/h 66 % 0 mm
21:23 -12.1 °C -15.5 °C 34428.8 hPa WSW 7.6 km/h 19.2 km/h 66 % 0 mm
21:34 -12.1 °C -15.4 °C 34428.8 hPa WSW 8.2 km/h 15 km/h 66 % 0 mm
21:44 -12.1 °C -15.4 °C 34428.8 hPa SW 7.7 km/h 14 km/h 66 % 0 mm
21:49 -12.1 °C -15.4 °C 34428.8 hPa WSW 8.5 km/h 35.2 km/h 66 % 0 mm
21:54 -11.9 °C -15.3 °C 34428.8 hPa WSW 11.1 km/h 35.2 km/h 66 % 0 mm
21:59 -11.9 °C -15.3 °C 34428.8 hPa WSW 12.9 km/h 24.8 km/h 66 % 0 mm
22:04 -11.9 °C -15.3 °C 34428.8 hPa WSW 11.1 km/h 24.8 km/h 66 % 0 mm
22:09 -11.8 °C -15.2 °C 34428.8 hPa WSW 10.9 km/h 18.7 km/h 66 % 0 mm
22:14 -11.8 °C -15.3 °C 34428.8 hPa SW 10.6 km/h 18.7 km/h 65 % 0 mm
22:19 -11.8 °C -15.3 °C 34428.8 hPa SW 10.6 km/h 27.7 km/h 65 % 0 mm
22:24 -11.8 °C -15.3 °C 34428.8 hPa WSW 10.6 km/h 27.7 km/h 65 % 0 mm
22:29 -11.7 °C -15.2 °C 34428.8 hPa WSW 11.6 km/h 27.2 km/h 65 % 0 mm
22:34 -11.7 °C -15.4 °C 34428.8 hPa WSW 12.7 km/h 27.2 km/h 64 % 0 mm
22:39 -11.7 °C -15.4 °C 34428.8 hPa SW 10.6 km/h 25.4 km/h 64 % 0 mm
22:54 -11.7 °C -15.4 °C 34428.8 hPa WSW 8.9 km/h 16.9 km/h 63 % 0 mm
23:04 -11.7 °C -15.5 °C 34428.8 hPa SW 10.6 km/h 17.4 km/h 63 % 0 mm
23:14 -11.8 °C -15.6 °C 34428.8 hPa SW 10.3 km/h 16.3 km/h 63 % 0 mm
23:19 -11.9 °C -15.7 °C 34428.8 hPa SW 9.8 km/h 15 km/h 63 % 0 mm
23:24 -11.8 °C -15.6 °C 34428.8 hPa SW 8.2 km/h 16.3 km/h 63 % 0 mm
23:29 -11.9 °C -15.7 °C 34428.8 hPa SW 6.8 km/h 16.3 km/h 63 % 0 mm
23:34 -11.9 °C -15.7 °C 34428.8 hPa WSW 7.2 km/h 15 km/h 63 % 0 mm
23:39 -11.9 °C -15.5 °C 34428.8 hPa SW 7.7 km/h 15 km/h 64 % 0 mm
23:44 -11.9 °C -15.5 °C 34428.8 hPa SSW 6.4 km/h 11.6 km/h 64 % 0 mm
23:49 -11.9 °C -15.5 °C 34428.8 hPa South 6.9 km/h 15 km/h 64 % 0 mm
23:54 -11.9 °C -15.6 °C 34428.8 hPa SSW 9.8 km/h 16.9 km/h 64 % 0 mm
23:59 -11.9 °C -15.5 °C 34428.8 hPa SSW 8.2 km/h 16.9 km/h 64 % 0 mm
Vremenska postaja Senovo
Podatki zbrani iz Weather Underground - 2.5 mb

Script developed by  Jim McMurry - jmcmurry@mwt.net Adapted for the template by  Wim van der Kuil - Leuven-Template.eu

Vremenski podatki so objavljeni na:

European Weather Network

WeatherCloud

Weather Underground

AWEKAS

HAMweather, WeatherForYou, PWS Weather

MapView

Geostik

Slovenia weather network

Oprema, ki se uporablja:

Vremenski program
Cumulus

Vremenski server
Asus

Cumulus

Asus